N35386 KCOS-KSEZ
Flight info
| Callsign | N35386 |
|---|---|
| Flight time | 2h 49m |
| Altitude | 10000 |
| Route | DRAKE V83 PUB/N0178F100 |
| Aircraft | C208/L-SDFGR/C |
Departure
| Time | 2026-04-21 23:44 |
|---|---|
| Airport | City of Colorado Springs Municipal Airport (KCOS) |
Arrival
| Time | 2026-04-22 02:33 |
|---|---|
| Airport | Sedona Airport (KSEZ) |
| Time | Latitude | Longitude | Altitude | Speed | Heading |
|---|---|---|---|---|---|
| 2026-04-21 23:18 | 38.80001 | -104.70421 | 6192 ft | 0 kts | 244° |
| 2026-04-21 23:35 | 38.79999 | -104.70432 | 6192 ft | 4 kts | 282° |
| 2026-04-21 23:35 | 38.80047 | -104.70443 | 6192 ft | 10 kts | 5° |
| 2026-04-21 23:35 | 38.80128 | -104.70437 | 6192 ft | 13 kts | 0° |
| 2026-04-21 23:36 | 38.80225 | -104.70438 | 6192 ft | 14 kts | 3° |
| 2026-04-21 23:36 | 38.80281 | -104.70355 | 6192 ft | 13 kts | 91° |
| 2026-04-21 23:36 | 38.80280 | -104.70240 | 6192 ft | 13 kts | 90° |
| 2026-04-21 23:36 | 38.80280 | -104.70167 | 6192 ft | 11 kts | 90° |
| 2026-04-21 23:37 | 38.80280 | -104.70040 | 6192 ft | 16 kts | 90° |
| 2026-04-21 23:37 | 38.80279 | -104.69921 | 6192 ft | 11 kts | 91° |
| 2026-04-21 23:37 | 38.80277 | -104.69806 | 6192 ft | 10 kts | 91° |
| 2026-04-21 23:37 | 38.80277 | -104.69735 | 6192 ft | 14 kts | 88° |
| 2026-04-21 23:38 | 38.80279 | -104.69539 | 6192 ft | 20 kts | 90° |
| 2026-04-21 23:38 | 38.80279 | -104.69404 | 6192 ft | 25 kts | 90° |
| 2026-04-21 23:38 | 38.80281 | -104.69184 | 6192 ft | 21 kts | 90° |
| 2026-04-21 23:38 | 38.80281 | -104.69027 | 6192 ft | 15 kts | 89° |
| 2026-04-21 23:39 | 38.80280 | -104.68877 | 6193 ft | 17 kts | 91° |
| 2026-04-21 23:39 | 38.80349 | -104.68788 | 6193 ft | 20 kts | 359° |
| 2026-04-21 23:39 | 38.80512 | -104.68789 | 6192 ft | 25 kts | 0° |
| 2026-04-21 23:39 | 38.80671 | -104.68788 | 6192 ft | 23 kts | 359° |
| 2026-04-21 23:40 | 38.80827 | -104.68785 | 6192 ft | 21 kts | 0° |
| 2026-04-21 23:40 | 38.80964 | -104.68786 | 6192 ft | 18 kts | 359° |
| 2026-04-21 23:40 | 38.81110 | -104.68787 | 6192 ft | 23 kts | 360° |
| 2026-04-21 23:40 | 38.81262 | -104.68788 | 6193 ft | 21 kts | 1° |
| 2026-04-21 23:41 | 38.81354 | -104.68786 | 6193 ft | 17 kts | 359° |
| 2026-04-21 23:41 | 38.81478 | -104.68788 | 6193 ft | 18 kts | 359° |
| 2026-04-21 23:41 | 38.81594 | -104.68758 | 6193 ft | 16 kts | 55° |
| 2026-04-21 23:41 | 38.81600 | -104.68700 | 6194 ft | 0 kts | 91° |
| 2026-04-21 23:42 | 38.81600 | -104.68687 | 6194 ft | 6 kts | 90° |
| 2026-04-21 23:42 | 38.81597 | -104.68606 | 6195 ft | 10 kts | 107° |
| 2026-04-21 23:42 | 38.81544 | -104.68574 | 6195 ft | 14 kts | 180° |
| 2026-04-21 23:43 | 38.81242 | -104.68575 | 6194 ft | 73 kts | 180° |
| 2026-04-21 23:43 | 38.80624 | -104.68573 | 6278 ft | 103 kts | 181° |
| 2026-04-21 23:43 | 38.79832 | -104.68567 | 6439 ft | 120 kts | 182° |
| 2026-04-21 23:43 | 38.78943 | -104.68524 | 6543 ft | 136 kts | 175° |
| 2026-04-21 23:44 | 38.77953 | -104.68442 | 6626 ft | 148 kts | 178° |
| 2026-04-21 23:44 | 38.76928 | -104.68418 | 6844 ft | 145 kts | 179° |
| 2026-04-21 23:44 | 38.75934 | -104.68404 | 7085 ft | 141 kts | 179° |
| 2026-04-21 23:44 | 38.75034 | -104.68022 | 7297 ft | 135 kts | 153° |
| 2026-04-21 23:45 | 38.74203 | -104.67476 | 7532 ft | 133 kts | 157° |
| 2026-04-21 23:45 | 38.72529 | -104.66512 | 8003 ft | 131 kts | 158° |
| 2026-04-21 23:45 | 38.71681 | -104.66042 | 8200 ft | 134 kts | 159° |
| 2026-04-21 23:46 | 38.70813 | -104.65562 | 8440 ft | 138 kts | 159° |
| 2026-04-21 23:46 | 38.69925 | -104.65073 | 8684 ft | 139 kts | 159° |
| 2026-04-21 23:46 | 38.69033 | -104.64583 | 8924 ft | 139 kts | 159° |
| 2026-04-21 23:46 | 38.68157 | -104.64101 | 9165 ft | 137 kts | 160° |
| 2026-04-21 23:47 | 38.67279 | -104.63618 | 9409 ft | 137 kts | 158° |
| 2026-04-21 23:47 | 38.66400 | -104.63136 | 9508 ft | 138 kts | 159° |
| 2026-04-21 23:47 | 38.65515 | -104.62651 | 9750 ft | 139 kts | 160° |
| 2026-04-21 23:47 | 38.64630 | -104.62164 | 9982 ft | 138 kts | 160° |
| 2026-04-21 23:48 | 38.63747 | -104.61679 | 10212 ft | 138 kts | 160° |
| 2026-04-21 23:48 | 38.62866 | -104.61197 | 10445 ft | 138 kts | 159° |
| 2026-04-21 23:48 | 38.61980 | -104.60710 | 10680 ft | 139 kts | 159° |
| 2026-04-21 23:48 | 38.61094 | -104.60222 | 10925 ft | 139 kts | 161° |
| 2026-04-21 23:49 | 38.60204 | -104.59736 | 11163 ft | 139 kts | 161° |
| 2026-04-21 23:49 | 38.59311 | -104.59245 | 11406 ft | 141 kts | 160° |
| 2026-04-21 23:49 | 38.58421 | -104.58758 | 11645 ft | 141 kts | 159° |
| 2026-04-21 23:49 | 38.57520 | -104.58264 | 11889 ft | 141 kts | 161° |
| 2026-04-21 23:50 | 38.56599 | -104.57763 | 11951 ft | 153 kts | 161° |
| 2026-04-21 23:50 | 38.55569 | -104.57205 | 11856 ft | 168 kts | 161° |
| 2026-04-21 23:50 | 38.54474 | -104.56605 | 11839 ft | 172 kts | 161° |
| 2026-04-21 23:50 | 38.53377 | -104.56002 | 11839 ft | 171 kts | 162° |
| 2026-04-21 23:51 | 38.52285 | -104.55405 | 11842 ft | 171 kts | 161° |
| 2026-04-21 23:51 | 38.51197 | -104.54809 | 11848 ft | 170 kts | 159° |
| 2026-04-21 23:51 | 38.50109 | -104.54215 | 11853 ft | 170 kts | 160° |
| 2026-04-21 23:51 | 38.49021 | -104.53618 | 11854 ft | 170 kts | 160° |
| 2026-04-21 23:52 | 38.47932 | -104.53024 | 11854 ft | 170 kts | 161° |
| 2026-04-21 23:52 | 38.46839 | -104.52429 | 11858 ft | 172 kts | 159° |
| 2026-04-21 23:52 | 38.45743 | -104.51829 | 11868 ft | 172 kts | 161° |
| 2026-04-21 23:52 | 38.44628 | -104.51299 | 11875 ft | 170 kts | 175° |
| 2026-04-21 23:53 | 38.43475 | -104.51492 | 11880 ft | 168 kts | 195° |
| 2026-04-21 23:53 | 38.42333 | -104.51739 | 11872 ft | 169 kts | 174° |
| 2026-04-21 23:53 | 38.41253 | -104.51140 | 11881 ft | 170 kts | 158° |
| 2026-04-21 23:53 | 38.40132 | -104.50719 | 11882 ft | 170 kts | 160° |
| 2026-04-21 23:54 | 38.39191 | -104.49798 | 11879 ft | 174 kts | 137° |
| 2026-04-21 23:54 | 38.38402 | -104.48631 | 11888 ft | 175 kts | 134° |
| 2026-04-21 23:54 | 38.37555 | -104.47533 | 11896 ft | 172 kts | 146° |
| 2026-04-21 23:54 | 38.36526 | -104.46785 | 11905 ft | 170 kts | 159° |
| 2026-04-21 23:55 | 38.35441 | -104.46197 | 11904 ft | 169 kts | 161° |
| 2026-04-21 23:55 | 38.34354 | -104.45620 | 11902 ft | 169 kts | 160° |
| 2026-04-21 23:55 | 38.33267 | -104.45033 | 11904 ft | 170 kts | 160° |
| 2026-04-21 23:55 | 38.32179 | -104.44441 | 11903 ft | 170 kts | 160° |
| 2026-04-21 23:56 | 38.31039 | -104.44278 | 11912 ft | 167 kts | 192° |
| 2026-04-21 23:56 | 38.29914 | -104.44649 | 11906 ft | 167 kts | 197° |
| 2026-04-21 23:56 | 38.28795 | -104.45067 | 11904 ft | 168 kts | 197° |
| 2026-04-21 23:56 | 38.27672 | -104.45491 | 11905 ft | 168 kts | 197° |
| 2026-04-21 23:57 | 38.26549 | -104.45915 | 11904 ft | 168 kts | 197° |
| 2026-04-21 23:57 | 38.25431 | -104.46340 | 11905 ft | 167 kts | 197° |
| 2026-04-21 23:57 | 38.24317 | -104.46764 | 11905 ft | 167 kts | 197° |
| 2026-04-21 23:57 | 38.23201 | -104.47188 | 11906 ft | 167 kts | 197° |
| 2026-04-21 23:58 | 38.22082 | -104.47612 | 11901 ft | 168 kts | 197° |
| 2026-04-21 23:58 | 38.20968 | -104.48063 | 11902 ft | 168 kts | 197° |
| 2026-04-21 23:58 | 38.19855 | -104.48530 | 11902 ft | 169 kts | 197° |
| 2026-04-21 23:58 | 38.18740 | -104.49004 | 11894 ft | 169 kts | 198° |
| 2026-04-21 23:59 | 38.17620 | -104.49472 | 11888 ft | 170 kts | 197° |
| 2026-04-21 23:59 | 38.16492 | -104.49941 | 11881 ft | 171 kts | 198° |
| 2026-04-21 23:59 | 38.15367 | -104.50412 | 11884 ft | 171 kts | 198° |
| 2026-04-21 23:59 | 38.14286 | -104.50865 | 12117 ft | 161 kts | 197° |
| 2026-04-22 00:00 | 38.13230 | -104.51313 | 12354 ft | 155 kts | 196° |
| 2026-04-22 00:00 | 38.12221 | -104.51741 | 12601 ft | 151 kts | 197° |
| 2026-04-22 00:00 | 38.11239 | -104.52157 | 12834 ft | 147 kts | 197° |
| 2026-04-22 00:00 | 38.10278 | -104.52559 | 13073 ft | 144 kts | 197° |
| 2026-04-22 00:01 | 38.09350 | -104.52952 | 13321 ft | 141 kts | 197° |
| 2026-04-22 00:01 | 38.08422 | -104.53339 | 13572 ft | 139 kts | 197° |
| 2026-04-22 00:01 | 38.07588 | -104.53936 | 13807 ft | 140 kts | 215° |
| 2026-04-22 00:01 | 38.06792 | -104.54750 | 13815 ft | 153 kts | 216° |
| 2026-04-22 00:02 | 38.05945 | -104.55624 | 13820 ft | 160 kts | 216° |
| 2026-04-22 00:02 | 38.05065 | -104.56525 | 13815 ft | 164 kts | 217° |
| 2026-04-22 00:02 | 38.04172 | -104.57443 | 13813 ft | 166 kts | 218° |
| 2026-04-22 00:02 | 38.03267 | -104.58372 | 13809 ft | 168 kts | 217° |
| 2026-04-22 00:03 | 38.02361 | -104.59313 | 13802 ft | 169 kts | 217° |
| 2026-04-22 00:03 | 38.01450 | -104.60257 | 13801 ft | 169 kts | 217° |
| 2026-04-22 00:03 | 38.00535 | -104.61202 | 13794 ft | 170 kts | 217° |
| 2026-04-22 00:03 | 37.99618 | -104.62147 | 13789 ft | 170 kts | 216° |
| 2026-04-22 00:04 | 37.98703 | -104.63091 | 13788 ft | 169 kts | 217° |
| 2026-04-22 00:04 | 37.97793 | -104.64036 | 13783 ft | 169 kts | 217° |
| 2026-04-22 00:04 | 37.96882 | -104.64979 | 13806 ft | 169 kts | 217° |
| 2026-04-22 00:04 | 37.95973 | -104.65920 | 13800 ft | 169 kts | 217° |
| 2026-04-22 00:05 | 37.95050 | -104.66855 | 13801 ft | 170 kts | 215° |
| 2026-04-22 00:05 | 37.94134 | -104.67801 | 13803 ft | 170 kts | 216° |
| 2026-04-22 00:05 | 37.93227 | -104.68753 | 13799 ft | 169 kts | 218° |
| 2026-04-22 00:05 | 37.92322 | -104.69704 | 13799 ft | 169 kts | 218° |
| 2026-04-22 00:06 | 37.91414 | -104.70649 | 13810 ft | 169 kts | 217° |
| 2026-04-22 00:06 | 37.90503 | -104.71585 | 13807 ft | 169 kts | 218° |
| 2026-04-22 00:06 | 37.89592 | -104.72523 | 13811 ft | 169 kts | 218° |
| 2026-04-22 00:06 | 37.88681 | -104.73463 | 13805 ft | 169 kts | 217° |
| 2026-04-22 00:07 | 37.87777 | -104.74419 | 13809 ft | 169 kts | 218° |
| 2026-04-22 00:07 | 37.86867 | -104.75366 | 13810 ft | 169 kts | 216° |
| 2026-04-22 00:07 | 37.85955 | -104.76310 | 13807 ft | 170 kts | 218° |
| 2026-04-22 00:07 | 37.85037 | -104.77253 | 13810 ft | 170 kts | 218° |
| 2026-04-22 00:08 | 37.84123 | -104.78200 | 13810 ft | 169 kts | 218° |
| 2026-04-22 00:08 | 37.83218 | -104.79147 | 13810 ft | 168 kts | 217° |
| 2026-04-22 00:08 | 37.82314 | -104.80090 | 13810 ft | 168 kts | 216° |
| 2026-04-22 00:08 | 37.81409 | -104.81029 | 13812 ft | 169 kts | 218° |
| 2026-04-22 00:09 | 37.80494 | -104.81965 | 13811 ft | 170 kts | 216° |
| 2026-04-22 00:09 | 37.79583 | -104.82911 | 13816 ft | 169 kts | 216° |
| 2026-04-22 00:09 | 37.78678 | -104.83861 | 13817 ft | 169 kts | 218° |
| 2026-04-22 00:09 | 37.77773 | -104.84808 | 13816 ft | 169 kts | 217° |
| 2026-04-22 00:10 | 37.76863 | -104.85749 | 13820 ft | 169 kts | 218° |
| 2026-04-22 00:10 | 37.75945 | -104.86684 | 13818 ft | 170 kts | 217° |
| 2026-04-22 00:10 | 37.75027 | -104.87622 | 13812 ft | 170 kts | 217° |
| 2026-04-22 00:10 | 37.74124 | -104.88554 | 13816 ft | 170 kts | 217° |
| 2026-04-22 00:11 | 37.73223 | -104.89509 | 13817 ft | 169 kts | 218° |
| 2026-04-22 00:11 | 37.72312 | -104.90455 | 13818 ft | 169 kts | 217° |
| 2026-04-22 00:11 | 37.71397 | -104.91398 | 13818 ft | 169 kts | 217° |
| 2026-04-22 00:11 | 37.70488 | -104.92333 | 13814 ft | 168 kts | 219° |
| 2026-04-22 00:12 | 37.69575 | -104.93229 | 13851 ft | 165 kts | 217° |
| 2026-04-22 00:12 | 37.68660 | -104.94081 | 13849 ft | 162 kts | 217° |
| 2026-04-22 00:12 | 37.67759 | -104.94924 | 13848 ft | 161 kts | 218° |
| 2026-04-22 00:12 | 37.66857 | -104.95764 | 13846 ft | 161 kts | 218° |
| 2026-04-22 00:13 | 37.66046 | -104.96739 | 13854 ft | 161 kts | 226° |
| 2026-04-22 00:13 | 37.65289 | -104.97771 | 13852 ft | 160 kts | 227° |
| 2026-04-22 00:13 | 37.64536 | -104.98804 | 13855 ft | 159 kts | 227° |
| 2026-04-22 00:13 | 37.63786 | -104.99831 | 13855 ft | 159 kts | 227° |
| 2026-04-22 00:14 | 37.63037 | -105.00855 | 13855 ft | 159 kts | 227° |
| 2026-04-22 00:14 | 37.62285 | -105.01878 | 13856 ft | 159 kts | 227° |
| 2026-04-22 00:14 | 37.61527 | -105.02902 | 13851 ft | 160 kts | 227° |
| 2026-04-22 00:14 | 37.60774 | -105.03928 | 13852 ft | 159 kts | 227° |
| 2026-04-22 00:15 | 37.60024 | -105.04954 | 13857 ft | 159 kts | 227° |
| 2026-04-22 00:15 | 37.59282 | -105.05979 | 13854 ft | 158 kts | 227° |
| 2026-04-22 00:15 | 37.58543 | -105.07000 | 13853 ft | 158 kts | 227° |
| 2026-04-22 00:15 | 37.57801 | -105.08021 | 13882 ft | 159 kts | 227° |
| 2026-04-22 00:16 | 37.57049 | -105.09044 | 13889 ft | 160 kts | 227° |
| 2026-04-22 00:16 | 37.56288 | -105.10075 | 13890 ft | 162 kts | 227° |
| 2026-04-22 00:16 | 37.55516 | -105.11122 | 13896 ft | 164 kts | 227° |
| 2026-04-22 00:16 | 37.54734 | -105.12186 | 13889 ft | 165 kts | 227° |
| 2026-04-22 00:17 | 37.53954 | -105.13249 | 13885 ft | 166 kts | 227° |
| 2026-04-22 00:17 | 37.53168 | -105.14327 | 13893 ft | 167 kts | 228° |
| 2026-04-22 00:17 | 37.52373 | -105.15413 | 13888 ft | 169 kts | 227° |
| 2026-04-22 00:17 | 37.51580 | -105.16499 | 13888 ft | 167 kts | 227° |
| 2026-04-22 00:18 | 37.50798 | -105.17576 | 13890 ft | 166 kts | 227° |
| 2026-04-22 00:18 | 37.50013 | -105.18654 | 13885 ft | 167 kts | 227° |
| 2026-04-22 00:18 | 37.49226 | -105.19728 | 13886 ft | 167 kts | 227° |
| 2026-04-22 00:18 | 37.48440 | -105.20803 | 13886 ft | 167 kts | 227° |
| 2026-04-22 00:19 | 37.47647 | -105.21885 | 13916 ft | 169 kts | 227° |
| 2026-04-22 00:19 | 37.46851 | -105.22962 | 13921 ft | 168 kts | 227° |
| 2026-04-22 00:19 | 37.46066 | -105.24029 | 13922 ft | 168 kts | 227° |
| 2026-04-22 00:19 | 37.45273 | -105.25113 | 13915 ft | 169 kts | 227° |
| 2026-04-22 00:20 | 37.44475 | -105.26200 | 13919 ft | 169 kts | 227° |
| 2026-04-22 00:20 | 37.43676 | -105.27287 | 13915 ft | 169 kts | 227° |
| 2026-04-22 00:20 | 37.42875 | -105.28370 | 13916 ft | 169 kts | 227° |
| 2026-04-22 00:20 | 37.42082 | -105.29453 | 13915 ft | 167 kts | 228° |
| 2026-04-22 00:21 | 37.41304 | -105.30539 | 13917 ft | 167 kts | 227° |
| 2026-04-22 00:21 | 37.40530 | -105.31641 | 13916 ft | 166 kts | 227° |
| 2026-04-22 00:21 | 37.39760 | -105.32727 | 13918 ft | 166 kts | 227° |
| 2026-04-22 00:21 | 37.38987 | -105.33813 | 13916 ft | 167 kts | 227° |
| 2026-04-22 00:22 | 37.38211 | -105.34899 | 13916 ft | 167 kts | 227° |
| 2026-04-22 00:22 | 37.37440 | -105.35983 | 13924 ft | 167 kts | 228° |
| 2026-04-22 00:22 | 37.36671 | -105.37067 | 13927 ft | 166 kts | 228° |
| 2026-04-22 00:22 | 37.35911 | -105.38134 | 13924 ft | 166 kts | 228° |
| 2026-04-22 00:23 | 37.35134 | -105.39214 | 13926 ft | 166 kts | 227° |
| 2026-04-22 00:23 | 37.34361 | -105.40295 | 13925 ft | 167 kts | 227° |
| 2026-04-22 00:23 | 37.33584 | -105.41375 | 13926 ft | 167 kts | 226° |
| 2026-04-22 00:23 | 37.32813 | -105.42453 | 13928 ft | 166 kts | 227° |
| 2026-04-22 00:24 | 37.32047 | -105.43527 | 13927 ft | 164 kts | 227° |
| 2026-04-22 00:24 | 37.31291 | -105.44597 | 13926 ft | 164 kts | 227° |
| 2026-04-22 00:24 | 37.30533 | -105.45667 | 13932 ft | 164 kts | 228° |
| 2026-04-22 00:24 | 37.29773 | -105.46738 | 13935 ft | 164 kts | 228° |
| 2026-04-22 00:25 | 37.29259 | -105.47463 | 13935 ft | 165 kts | 227° |
| 2026-04-22 00:25 | 37.28491 | -105.48541 | 13862 ft | 167 kts | 227° |
| 2026-04-22 00:25 | 37.27713 | -105.49633 | 13750 ft | 167 kts | 227° |
| 2026-04-22 00:25 | 37.26944 | -105.50723 | 13613 ft | 167 kts | 228° |
| 2026-04-22 00:26 | 37.26180 | -105.51799 | 13475 ft | 167 kts | 228° |
| 2026-04-22 00:26 | 37.25391 | -105.52903 | 13342 ft | 168 kts | 228° |
| 2026-04-22 00:26 | 37.24613 | -105.53978 | 13222 ft | 169 kts | 227° |
| 2026-04-22 00:26 | 37.23827 | -105.55066 | 13098 ft | 168 kts | 229° |
| 2026-04-22 00:27 | 37.23045 | -105.56153 | 12967 ft | 168 kts | 227° |
| 2026-04-22 00:27 | 37.22271 | -105.57236 | 12927 ft | 166 kts | 228° |
| 2026-04-22 00:27 | 37.21496 | -105.58311 | 12935 ft | 166 kts | 228° |
| 2026-04-22 00:27 | 37.20722 | -105.59383 | 12920 ft | 167 kts | 227° |
| 2026-04-22 00:28 | 37.19944 | -105.60463 | 12922 ft | 167 kts | 227° |
| 2026-04-22 00:28 | 37.19173 | -105.61546 | 12928 ft | 167 kts | 228° |
| 2026-04-22 00:28 | 37.18402 | -105.62622 | 12926 ft | 165 kts | 228° |
| 2026-04-22 00:28 | 37.17633 | -105.63691 | 12926 ft | 165 kts | 228° |
| 2026-04-22 00:29 | 37.16863 | -105.64759 | 12912 ft | 165 kts | 227° |
| 2026-04-22 00:29 | 37.16090 | -105.65833 | 12918 ft | 166 kts | 227° |
| 2026-04-22 00:29 | 37.15311 | -105.66913 | 12915 ft | 167 kts | 227° |
| 2026-04-22 00:29 | 37.14531 | -105.67996 | 12914 ft | 167 kts | 227° |
| 2026-04-22 00:30 | 37.13752 | -105.69081 | 12907 ft | 167 kts | 227° |
| 2026-04-22 00:30 | 37.12972 | -105.70161 | 12907 ft | 168 kts | 227° |
| 2026-04-22 00:30 | 37.12189 | -105.71241 | 12914 ft | 168 kts | 227° |
| 2026-04-22 00:30 | 37.11399 | -105.72324 | 12913 ft | 169 kts | 227° |
| 2026-04-22 00:31 | 37.10609 | -105.73409 | 12916 ft | 168 kts | 228° |
| 2026-04-22 00:31 | 37.09822 | -105.74496 | 12913 ft | 169 kts | 227° |
| 2026-04-22 00:31 | 37.09035 | -105.75585 | 12912 ft | 168 kts | 227° |
| 2026-04-22 00:31 | 37.08250 | -105.76666 | 12914 ft | 168 kts | 227° |
| 2026-04-22 00:32 | 37.07475 | -105.77734 | 12910 ft | 168 kts | 228° |
| 2026-04-22 00:32 | 37.06687 | -105.78809 | 12915 ft | 168 kts | 227° |
| 2026-04-22 00:32 | 37.05891 | -105.79912 | 12905 ft | 169 kts | 228° |
| 2026-04-22 00:32 | 37.05113 | -105.80987 | 12901 ft | 168 kts | 227° |
| 2026-04-22 00:33 | 37.04324 | -105.82082 | 12899 ft | 167 kts | 227° |
| 2026-04-22 00:33 | 37.03556 | -105.83141 | 12913 ft | 168 kts | 227° |
| 2026-04-22 00:33 | 37.02770 | -105.84219 | 12904 ft | 167 kts | 227° |
| 2026-04-22 00:33 | 37.01982 | -105.85295 | 12905 ft | 168 kts | 227° |
| 2026-04-22 00:34 | 37.01196 | -105.86375 | 12901 ft | 168 kts | 227° |
| 2026-04-22 00:34 | 37.00411 | -105.87457 | 12905 ft | 167 kts | 227° |
| 2026-04-22 00:34 | 36.99630 | -105.88534 | 12904 ft | 167 kts | 227° |
| 2026-04-22 00:34 | 36.98850 | -105.89615 | 12901 ft | 167 kts | 227° |
| 2026-04-22 00:35 | 36.98067 | -105.90690 | 12912 ft | 168 kts | 227° |
| 2026-04-22 00:35 | 36.97280 | -105.91770 | 12904 ft | 168 kts | 227° |
| 2026-04-22 00:35 | 36.96495 | -105.92854 | 12929 ft | 168 kts | 228° |
| 2026-04-22 00:35 | 36.95710 | -105.93939 | 12930 ft | 168 kts | 227° |
| 2026-04-22 00:36 | 36.94927 | -105.95027 | 12924 ft | 168 kts | 228° |
| 2026-04-22 00:36 | 36.94144 | -105.96114 | 12925 ft | 168 kts | 228° |
| 2026-04-22 00:36 | 36.93357 | -105.97197 | 12928 ft | 168 kts | 228° |
| 2026-04-22 00:36 | 36.92563 | -105.98279 | 12923 ft | 169 kts | 227° |
| 2026-04-22 00:37 | 36.91773 | -105.99362 | 12925 ft | 169 kts | 228° |
| 2026-04-22 00:37 | 36.90974 | -106.00429 | 12921 ft | 168 kts | 229° |
| 2026-04-22 00:37 | 36.90160 | -106.01468 | 12925 ft | 167 kts | 228° |
| 2026-04-22 00:37 | 36.89347 | -106.02502 | 12917 ft | 167 kts | 227° |
| 2026-04-22 00:38 | 36.88531 | -106.03529 | 12922 ft | 167 kts | 227° |
| 2026-04-22 00:38 | 36.87718 | -106.04563 | 12930 ft | 167 kts | 229° |
| 2026-04-22 00:38 | 36.86901 | -106.05600 | 12922 ft | 168 kts | 227° |
| 2026-04-22 00:38 | 36.86087 | -106.06639 | 12948 ft | 167 kts | 228° |
| 2026-04-22 00:39 | 36.85278 | -106.07679 | 12947 ft | 166 kts | 227° |
| 2026-04-22 00:39 | 36.84474 | -106.08711 | 12935 ft | 166 kts | 228° |
| 2026-04-22 00:39 | 36.83663 | -106.09742 | 12939 ft | 167 kts | 227° |
| 2026-04-22 00:39 | 36.82851 | -106.10776 | 12944 ft | 167 kts | 226° |
| 2026-04-22 00:40 | 36.82037 | -106.11807 | 12937 ft | 166 kts | 228° |
| 2026-04-22 00:40 | 36.81222 | -106.12830 | 12946 ft | 166 kts | 227° |
| 2026-04-22 00:40 | 36.80409 | -106.13860 | 12940 ft | 166 kts | 229° |
| 2026-04-22 00:40 | 36.79597 | -106.14880 | 12945 ft | 166 kts | 227° |
| 2026-04-22 00:41 | 36.78785 | -106.15905 | 12931 ft | 167 kts | 228° |
| 2026-04-22 00:41 | 36.77960 | -106.16930 | 12935 ft | 169 kts | 229° |
| 2026-04-22 00:41 | 36.77229 | -106.18049 | 12944 ft | 164 kts | 248° |
| 2026-04-22 00:41 | 36.76868 | -106.19401 | 12942 ft | 165 kts | 253° |
| 2026-04-22 00:42 | 36.76538 | -106.20766 | 12945 ft | 165 kts | 252° |
| 2026-04-22 00:42 | 36.76155 | -106.22116 | 12935 ft | 165 kts | 250° |
| 2026-04-22 00:42 | 36.75745 | -106.23448 | 12941 ft | 166 kts | 249° |
| 2026-04-22 00:42 | 36.75325 | -106.24787 | 12942 ft | 165 kts | 249° |
| 2026-04-22 00:43 | 36.74907 | -106.26121 | 12940 ft | 165 kts | 249° |
| 2026-04-22 00:43 | 36.74489 | -106.27457 | 12942 ft | 167 kts | 249° |
| 2026-04-22 00:43 | 36.74064 | -106.28817 | 12941 ft | 169 kts | 249° |
| 2026-04-22 00:43 | 36.73639 | -106.30178 | 12948 ft | 169 kts | 249° |
| 2026-04-22 00:44 | 36.73214 | -106.31533 | 12942 ft | 168 kts | 249° |
| 2026-04-22 00:44 | 36.72791 | -106.32885 | 12943 ft | 167 kts | 249° |
| 2026-04-22 00:44 | 36.72368 | -106.34237 | 12949 ft | 167 kts | 249° |
| 2026-04-22 00:44 | 36.71945 | -106.35588 | 12931 ft | 168 kts | 249° |
| 2026-04-22 00:45 | 36.71516 | -106.36950 | 12937 ft | 170 kts | 249° |
| 2026-04-22 00:45 | 36.71085 | -106.38323 | 12934 ft | 170 kts | 249° |
| 2026-04-22 00:45 | 36.70657 | -106.39687 | 12939 ft | 168 kts | 249° |
| 2026-04-22 00:45 | 36.70233 | -106.41037 | 12932 ft | 165 kts | 249° |
| 2026-04-22 00:46 | 36.69809 | -106.42385 | 12943 ft | 169 kts | 249° |
| 2026-04-22 00:46 | 36.69384 | -106.43741 | 12935 ft | 168 kts | 249° |
| 2026-04-22 00:46 | 36.68959 | -106.45092 | 12941 ft | 167 kts | 249° |
| 2026-04-22 00:46 | 36.68533 | -106.46444 | 12938 ft | 168 kts | 248° |
| 2026-04-22 00:47 | 36.68103 | -106.47808 | 12939 ft | 171 kts | 248° |
| 2026-04-22 00:47 | 36.67670 | -106.49182 | 12927 ft | 170 kts | 249° |
| 2026-04-22 00:47 | 36.67240 | -106.50548 | 12933 ft | 169 kts | 248° |
| 2026-04-22 00:47 | 36.66809 | -106.51914 | 12931 ft | 169 kts | 248° |
| 2026-04-22 00:48 | 36.66382 | -106.53268 | 12935 ft | 168 kts | 248° |
| 2026-04-22 00:48 | 36.65957 | -106.54614 | 12930 ft | 166 kts | 249° |
| 2026-04-22 00:48 | 36.65535 | -106.55950 | 12928 ft | 166 kts | 249° |
| 2026-04-22 00:48 | 36.65111 | -106.57293 | 12932 ft | 167 kts | 249° |
| 2026-04-22 00:49 | 36.64685 | -106.58638 | 12924 ft | 167 kts | 249° |
| 2026-04-22 00:49 | 36.64258 | -106.59990 | 12925 ft | 168 kts | 249° |
| 2026-04-22 00:49 | 36.63828 | -106.61347 | 12916 ft | 169 kts | 249° |
| 2026-04-22 00:49 | 36.63392 | -106.62727 | 12784 ft | 173 kts | 249° |
| 2026-04-22 00:50 | 36.62952 | -106.64119 | 12641 ft | 173 kts | 249° |
| 2026-04-22 00:50 | 36.62519 | -106.65488 | 12518 ft | 172 kts | 248° |
| 2026-04-22 00:50 | 36.62076 | -106.66886 | 12389 ft | 172 kts | 249° |
| 2026-04-22 00:50 | 36.61645 | -106.68247 | 12269 ft | 171 kts | 249° |
| 2026-04-22 00:51 | 36.61208 | -106.69623 | 12144 ft | 171 kts | 249° |
| 2026-04-22 00:51 | 36.60771 | -106.71001 | 12025 ft | 171 kts | 249° |
| 2026-04-22 00:51 | 36.60336 | -106.72372 | 11918 ft | 170 kts | 249° |
| 2026-04-22 00:51 | 36.59902 | -106.73734 | 11906 ft | 169 kts | 249° |
| 2026-04-22 00:52 | 36.59473 | -106.75082 | 11903 ft | 166 kts | 248° |
| 2026-04-22 00:52 | 36.59048 | -106.76413 | 11903 ft | 165 kts | 249° |
| 2026-04-22 00:52 | 36.58633 | -106.77723 | 11894 ft | 162 kts | 249° |
| 2026-04-22 00:52 | 36.58217 | -106.79025 | 11902 ft | 162 kts | 249° |
| 2026-04-22 00:53 | 36.57799 | -106.80336 | 11898 ft | 163 kts | 248° |
| 2026-04-22 00:53 | 36.57379 | -106.81655 | 11895 ft | 165 kts | 249° |
| 2026-04-22 00:53 | 36.56956 | -106.82986 | 11897 ft | 166 kts | 249° |
| 2026-04-22 00:53 | 36.56532 | -106.84318 | 11898 ft | 165 kts | 248° |
| 2026-04-22 00:54 | 36.56109 | -106.85643 | 11892 ft | 164 kts | 248° |
| 2026-04-22 00:54 | 36.55688 | -106.86963 | 11894 ft | 164 kts | 247° |
| 2026-04-22 00:54 | 36.55269 | -106.88276 | 11894 ft | 163 kts | 248° |
| 2026-04-22 00:54 | 36.54850 | -106.89584 | 11893 ft | 163 kts | 248° |
| 2026-04-22 00:55 | 36.54431 | -106.90895 | 11891 ft | 163 kts | 249° |
| 2026-04-22 00:55 | 36.54016 | -106.92191 | 11892 ft | 161 kts | 248° |
| 2026-04-22 00:55 | 36.53176 | -106.94815 | 11891 ft | 165 kts | 248° |
| 2026-04-22 00:56 | 36.52754 | -106.96136 | 11891 ft | 164 kts | 249° |
| 2026-04-22 00:56 | 36.52331 | -106.97455 | 11897 ft | 164 kts | 248° |
| 2026-04-22 00:56 | 36.51908 | -106.98777 | 11896 ft | 165 kts | 248° |
| 2026-04-22 00:56 | 36.51485 | -107.00094 | 11897 ft | 164 kts | 249° |
| 2026-04-22 00:57 | 36.51062 | -107.01415 | 11895 ft | 165 kts | 248° |
| 2026-04-22 00:57 | 36.50636 | -107.02739 | 11894 ft | 165 kts | 249° |
| 2026-04-22 00:57 | 36.50214 | -107.04057 | 11894 ft | 164 kts | 248° |
| 2026-04-22 00:57 | 36.49789 | -107.05378 | 11887 ft | 165 kts | 248° |
| 2026-04-22 00:58 | 36.49363 | -107.06704 | 11887 ft | 166 kts | 248° |
| 2026-04-22 00:58 | 36.48935 | -107.08036 | 11888 ft | 166 kts | 248° |
| 2026-04-22 00:58 | 36.48506 | -107.09371 | 11888 ft | 166 kts | 247° |
| 2026-04-22 00:58 | 36.48078 | -107.10701 | 11888 ft | 166 kts | 248° |
| 2026-04-22 00:59 | 36.47651 | -107.12026 | 11887 ft | 165 kts | 248° |
| 2026-04-22 00:59 | 36.47223 | -107.13352 | 11890 ft | 166 kts | 247° |
| 2026-04-22 00:59 | 36.46795 | -107.14681 | 11886 ft | 166 kts | 248° |
| 2026-04-22 00:59 | 36.46367 | -107.16008 | 11889 ft | 166 kts | 248° |
| 2026-04-22 01:00 | 36.45936 | -107.17344 | 11890 ft | 167 kts | 247° |
| 2026-04-22 01:00 | 36.45506 | -107.18681 | 11887 ft | 166 kts | 247° |
| 2026-04-22 01:00 | 36.45076 | -107.20012 | 11885 ft | 167 kts | 248° |
| 2026-04-22 01:00 | 36.44646 | -107.21347 | 11886 ft | 165 kts | 248° |
| 2026-04-22 01:01 | 36.44217 | -107.22673 | 11885 ft | 166 kts | 248° |
| 2026-04-22 01:01 | 36.43787 | -107.24002 | 11884 ft | 166 kts | 248° |
| 2026-04-22 01:01 | 36.43355 | -107.25337 | 11886 ft | 166 kts | 248° |
| 2026-04-22 01:01 | 36.42923 | -107.26674 | 11877 ft | 167 kts | 249° |
| 2026-04-22 01:02 | 36.42493 | -107.28000 | 11887 ft | 166 kts | 248° |
| 2026-04-22 01:02 | 36.42060 | -107.29335 | 11883 ft | 166 kts | 247° |
| 2026-04-22 01:02 | 36.41635 | -107.30647 | 11879 ft | 166 kts | 247° |
| 2026-04-22 01:02 | 36.41206 | -107.31971 | 11884 ft | 165 kts | 248° |
| 2026-04-22 01:03 | 36.40777 | -107.33296 | 11887 ft | 165 kts | 248° |
| 2026-04-22 01:03 | 36.40349 | -107.34617 | 11886 ft | 165 kts | 248° |
| 2026-04-22 01:03 | 36.39919 | -107.35940 | 11889 ft | 166 kts | 248° |
| 2026-04-22 01:03 | 36.39488 | -107.37268 | 11888 ft | 166 kts | 248° |
| 2026-04-22 01:04 | 36.39054 | -107.38599 | 11884 ft | 167 kts | 248° |
| 2026-04-22 01:04 | 36.38620 | -107.39938 | 11887 ft | 167 kts | 246° |
| 2026-04-22 01:04 | 36.38185 | -107.41276 | 11889 ft | 167 kts | 247° |
| 2026-04-22 01:04 | 36.37749 | -107.42614 | 11885 ft | 168 kts | 247° |
| 2026-04-22 01:05 | 36.37315 | -107.43950 | 11889 ft | 167 kts | 247° |
| 2026-04-22 01:05 | 36.36882 | -107.45279 | 11890 ft | 166 kts | 247° |
| 2026-04-22 01:05 | 36.36448 | -107.46612 | 11889 ft | 167 kts | 247° |
| 2026-04-22 01:05 | 36.36013 | -107.47945 | 11888 ft | 166 kts | 246° |
| 2026-04-22 01:06 | 36.35579 | -107.49275 | 11890 ft | 167 kts | 248° |
| 2026-04-22 01:06 | 36.35142 | -107.50614 | 11889 ft | 168 kts | 247° |
| 2026-04-22 01:06 | 36.34704 | -107.51958 | 11885 ft | 169 kts | 247° |
| 2026-04-22 01:06 | 36.34267 | -107.53299 | 11886 ft | 167 kts | 247° |
| 2026-04-22 01:07 | 36.33831 | -107.54634 | 11882 ft | 167 kts | 247° |
| 2026-04-22 01:07 | 36.33397 | -107.55961 | 11882 ft | 166 kts | 248° |
| 2026-04-22 01:07 | 36.32965 | -107.57284 | 11886 ft | 165 kts | 247° |
| 2026-04-22 01:07 | 36.32532 | -107.58605 | 11881 ft | 166 kts | 248° |
| 2026-04-22 01:08 | 36.32100 | -107.59922 | 11877 ft | 164 kts | 247° |
| 2026-04-22 01:08 | 36.31671 | -107.61235 | 11883 ft | 165 kts | 247° |
| 2026-04-22 01:08 | 36.31239 | -107.62554 | 11883 ft | 165 kts | 247° |
| 2026-04-22 01:08 | 36.30805 | -107.63879 | 11884 ft | 166 kts | 247° |
| 2026-04-22 01:09 | 36.30372 | -107.65202 | 11885 ft | 166 kts | 247° |
| 2026-04-22 01:09 | 36.29937 | -107.66528 | 11884 ft | 166 kts | 246° |
| 2026-04-22 01:09 | 36.29503 | -107.67851 | 11884 ft | 166 kts | 247° |
| 2026-04-22 01:09 | 36.29069 | -107.69172 | 11883 ft | 166 kts | 247° |
| 2026-04-22 01:10 | 36.28640 | -107.70478 | 11886 ft | 166 kts | 247° |
| 2026-04-22 01:10 | 36.28201 | -107.71817 | 11886 ft | 166 kts | 246° |
| 2026-04-22 01:10 | 36.27912 | -107.72693 | 11888 ft | 166 kts | 246° |
| 2026-04-22 01:10 | 36.27477 | -107.74017 | 11886 ft | 166 kts | 247° |
| 2026-04-22 01:11 | 36.27042 | -107.75340 | 11879 ft | 165 kts | 246° |
| 2026-04-22 01:11 | 36.26468 | -107.77084 | 11880 ft | 165 kts | 246° |
| 2026-04-22 01:11 | 36.26035 | -107.78397 | 11878 ft | 164 kts | 246° |
| 2026-04-22 01:11 | 36.25744 | -107.79280 | 11878 ft | 164 kts | 247° |
| 2026-04-22 01:12 | 36.25314 | -107.80587 | 11878 ft | 164 kts | 246° |
| 2026-04-22 01:12 | 36.24882 | -107.81898 | 11880 ft | 164 kts | 246° |
| 2026-04-22 01:12 | 36.24449 | -107.83209 | 11876 ft | 164 kts | 247° |
| 2026-04-22 01:12 | 36.24016 | -107.84522 | 11878 ft | 165 kts | 247° |
| 2026-04-22 01:13 | 36.23581 | -107.85839 | 11881 ft | 166 kts | 247° |
| 2026-04-22 01:13 | 36.23147 | -107.87154 | 11881 ft | 165 kts | 247° |
| 2026-04-22 01:13 | 36.22711 | -107.88471 | 11869 ft | 165 kts | 247° |
| 2026-04-22 01:13 | 36.22278 | -107.89784 | 11869 ft | 164 kts | 246° |
| 2026-04-22 01:14 | 36.21845 | -107.91093 | 11863 ft | 164 kts | 246° |
| 2026-04-22 01:14 | 36.21412 | -107.92401 | 11863 ft | 165 kts | 247° |
| 2026-04-22 01:14 | 36.20978 | -107.93711 | 11863 ft | 165 kts | 247° |
| 2026-04-22 01:14 | 36.20543 | -107.95026 | 11864 ft | 165 kts | 246° |
| 2026-04-22 01:15 | 36.20111 | -107.96329 | 11869 ft | 166 kts | 247° |
| 2026-04-22 01:15 | 36.19672 | -107.97656 | 11866 ft | 166 kts | 246° |
| 2026-04-22 01:15 | 36.19234 | -107.98977 | 11867 ft | 166 kts | 246° |
| 2026-04-22 01:15 | 36.18790 | -108.00317 | 11866 ft | 166 kts | 246° |
| 2026-04-22 01:16 | 36.18359 | -108.01614 | 11861 ft | 165 kts | 246° |
| 2026-04-22 01:16 | 36.17923 | -108.02927 | 11846 ft | 165 kts | 247° |
| 2026-04-22 01:16 | 36.17485 | -108.04243 | 11848 ft | 165 kts | 246° |
| 2026-04-22 01:16 | 36.17048 | -108.05561 | 11847 ft | 166 kts | 246° |
| 2026-04-22 01:17 | 36.16609 | -108.06881 | 11851 ft | 166 kts | 246° |
| 2026-04-22 01:17 | 36.16170 | -108.08202 | 11850 ft | 166 kts | 246° |
| 2026-04-22 01:17 | 36.15731 | -108.09520 | 11849 ft | 165 kts | 247° |
| 2026-04-22 01:17 | 36.15295 | -108.10829 | 11849 ft | 164 kts | 247° |
| 2026-04-22 01:18 | 36.14861 | -108.12134 | 11847 ft | 164 kts | 246° |
| 2026-04-22 01:18 | 36.14428 | -108.13432 | 11848 ft | 163 kts | 246° |
| 2026-04-22 01:18 | 36.13996 | -108.14731 | 11846 ft | 163 kts | 247° |
| 2026-04-22 01:18 | 36.13564 | -108.16025 | 11839 ft | 163 kts | 247° |
| 2026-04-22 01:19 | 36.13130 | -108.17325 | 11834 ft | 164 kts | 247° |
| 2026-04-22 01:19 | 36.12694 | -108.18630 | 11836 ft | 164 kts | 246° |
| 2026-04-22 01:19 | 36.12259 | -108.19936 | 11837 ft | 164 kts | 246° |
| 2026-04-22 01:19 | 36.11823 | -108.21241 | 11838 ft | 164 kts | 246° |
| 2026-04-22 01:20 | 36.11386 | -108.22548 | 11840 ft | 164 kts | 246° |
| 2026-04-22 01:20 | 36.10950 | -108.23851 | 11840 ft | 164 kts | 246° |
| 2026-04-22 01:20 | 36.10513 | -108.25157 | 11842 ft | 165 kts | 246° |
| 2026-04-22 01:20 | 36.10073 | -108.26471 | 11839 ft | 166 kts | 246° |
| 2026-04-22 01:21 | 36.09633 | -108.27787 | 11841 ft | 166 kts | 246° |
| 2026-04-22 01:21 | 36.09190 | -108.29109 | 11838 ft | 167 kts | 246° |
| 2026-04-22 01:21 | 36.08747 | -108.30433 | 11843 ft | 166 kts | 246° |
| 2026-04-22 01:21 | 36.08304 | -108.31756 | 11842 ft | 166 kts | 246° |
| 2026-04-22 01:22 | 36.07860 | -108.33078 | 11838 ft | 167 kts | 246° |
| 2026-04-22 01:22 | 36.07418 | -108.34398 | 11841 ft | 166 kts | 246° |
| 2026-04-22 01:22 | 36.06975 | -108.35714 | 11840 ft | 166 kts | 247° |
| 2026-04-22 01:22 | 36.06533 | -108.37029 | 11838 ft | 166 kts | 246° |
| 2026-04-22 01:23 | 36.06092 | -108.38345 | 11840 ft | 165 kts | 247° |
| 2026-04-22 01:23 | 36.05651 | -108.39657 | 11841 ft | 165 kts | 246° |
| 2026-04-22 01:23 | 36.05211 | -108.40964 | 11839 ft | 165 kts | 247° |
| 2026-04-22 01:23 | 36.04772 | -108.42270 | 11842 ft | 164 kts | 246° |
| 2026-04-22 01:24 | 36.04333 | -108.43575 | 11832 ft | 164 kts | 246° |
| 2026-04-22 01:24 | 36.03893 | -108.44881 | 11832 ft | 165 kts | 246° |
| 2026-04-22 01:24 | 36.03454 | -108.46184 | 11832 ft | 164 kts | 246° |
| 2026-04-22 01:24 | 36.03015 | -108.47485 | 11832 ft | 164 kts | 246° |
| 2026-04-22 01:25 | 36.02576 | -108.48789 | 11834 ft | 164 kts | 246° |
| 2026-04-22 01:25 | 36.02138 | -108.50090 | 11834 ft | 164 kts | 246° |
| 2026-04-22 01:25 | 36.01698 | -108.51393 | 11833 ft | 164 kts | 246° |
| 2026-04-22 01:25 | 36.01258 | -108.52696 | 11829 ft | 164 kts | 246° |
| 2026-04-22 01:26 | 36.00819 | -108.53994 | 11829 ft | 164 kts | 246° |
| 2026-04-22 01:26 | 36.00380 | -108.55293 | 11829 ft | 164 kts | 246° |
| 2026-04-22 01:26 | 35.99940 | -108.56595 | 11816 ft | 165 kts | 246° |
| 2026-04-22 01:26 | 35.99500 | -108.57900 | 11815 ft | 165 kts | 246° |
| 2026-04-22 01:27 | 35.99059 | -108.59202 | 11815 ft | 164 kts | 246° |
| 2026-04-22 01:27 | 35.98619 | -108.60502 | 11815 ft | 164 kts | 246° |
| 2026-04-22 01:27 | 35.98179 | -108.61800 | 11815 ft | 164 kts | 246° |
| 2026-04-22 01:27 | 35.97740 | -108.63096 | 11814 ft | 164 kts | 246° |
| 2026-04-22 01:28 | 35.97303 | -108.64387 | 11812 ft | 163 kts | 245° |
| 2026-04-22 01:28 | 35.96866 | -108.65676 | 11811 ft | 163 kts | 246° |
| 2026-04-22 01:28 | 35.96431 | -108.66960 | 11810 ft | 162 kts | 245° |
| 2026-04-22 01:28 | 35.95997 | -108.68238 | 11812 ft | 162 kts | 245° |
| 2026-04-22 01:29 | 35.95562 | -108.69519 | 11816 ft | 162 kts | 245° |
| 2026-04-22 01:29 | 35.95125 | -108.70805 | 11818 ft | 163 kts | 246° |
| 2026-04-22 01:29 | 35.94687 | -108.72093 | 11817 ft | 163 kts | 246° |
| 2026-04-22 01:29 | 35.94255 | -108.73368 | 11816 ft | 163 kts | 245° |
| 2026-04-22 01:30 | 35.93816 | -108.74658 | 11814 ft | 163 kts | 245° |
| 2026-04-22 01:30 | 35.93378 | -108.75946 | 11812 ft | 162 kts | 246° |
| 2026-04-22 01:30 | 35.92947 | -108.77218 | 11810 ft | 159 kts | 245° |
| 2026-04-22 01:30 | 35.92514 | -108.78481 | 11809 ft | 161 kts | 246° |
| 2026-04-22 01:31 | 35.92086 | -108.79743 | 11814 ft | 159 kts | 246° |
| 2026-04-22 01:31 | 35.91655 | -108.81007 | 11806 ft | 162 kts | 246° |
| 2026-04-22 01:31 | 35.91218 | -108.82288 | 11807 ft | 162 kts | 246° |
| 2026-04-22 01:31 | 35.90788 | -108.83551 | 11800 ft | 158 kts | 246° |
| 2026-04-22 01:32 | 35.90362 | -108.84800 | 11815 ft | 159 kts | 245° |
| 2026-04-22 01:32 | 35.89931 | -108.86062 | 11816 ft | 160 kts | 246° |
| 2026-04-22 01:32 | 35.89497 | -108.87330 | 11813 ft | 161 kts | 245° |
| 2026-04-22 01:32 | 35.89065 | -108.88598 | 11815 ft | 160 kts | 245° |
| 2026-04-22 01:33 | 35.88631 | -108.89865 | 11808 ft | 160 kts | 246° |
| 2026-04-22 01:33 | 35.88199 | -108.91130 | 11810 ft | 160 kts | 245° |
| 2026-04-22 01:33 | 35.87769 | -108.92388 | 11810 ft | 159 kts | 245° |
| 2026-04-22 01:33 | 35.87338 | -108.93647 | 11812 ft | 159 kts | 246° |
| 2026-04-22 01:34 | 35.86909 | -108.94902 | 11809 ft | 158 kts | 246° |
| 2026-04-22 01:34 | 35.86481 | -108.96153 | 11809 ft | 159 kts | 245° |
| 2026-04-22 01:34 | 35.86049 | -108.97409 | 11808 ft | 159 kts | 245° |
| 2026-04-22 01:34 | 35.85618 | -108.98669 | 11950 ft | 160 kts | 246° |
| 2026-04-22 01:35 | 35.85181 | -108.99941 | 11954 ft | 161 kts | 245° |
| 2026-04-22 01:35 | 35.84745 | -109.01211 | 11967 ft | 162 kts | 246° |
| 2026-04-22 01:35 | 35.84307 | -109.02492 | 11965 ft | 162 kts | 246° |
| 2026-04-22 01:35 | 35.83868 | -109.03770 | 11972 ft | 162 kts | 245° |
| 2026-04-22 01:36 | 35.83429 | -109.05047 | 11974 ft | 161 kts | 245° |
| 2026-04-22 01:36 | 35.82992 | -109.06321 | 11981 ft | 162 kts | 245° |
| 2026-04-22 01:36 | 35.82552 | -109.07600 | 11981 ft | 162 kts | 246° |
| 2026-04-22 01:36 | 35.82116 | -109.08870 | 11984 ft | 161 kts | 246° |
| 2026-04-22 01:37 | 35.81679 | -109.10140 | 11991 ft | 162 kts | 245° |
| 2026-04-22 01:37 | 35.81239 | -109.11416 | 11991 ft | 162 kts | 246° |
| 2026-04-22 01:37 | 35.80803 | -109.12687 | 11996 ft | 160 kts | 245° |
| 2026-04-22 01:37 | 35.80369 | -109.13946 | 11995 ft | 159 kts | 245° |
| 2026-04-22 01:38 | 35.79936 | -109.15199 | 11997 ft | 159 kts | 245° |
| 2026-04-22 01:38 | 35.79506 | -109.16450 | 11998 ft | 159 kts | 245° |
| 2026-04-22 01:38 | 35.79076 | -109.17699 | 11988 ft | 157 kts | 245° |
| 2026-04-22 01:38 | 35.78651 | -109.18928 | 11988 ft | 155 kts | 245° |
| 2026-04-22 01:39 | 35.78227 | -109.20153 | 11988 ft | 156 kts | 245° |
| 2026-04-22 01:39 | 35.77800 | -109.21390 | 11986 ft | 158 kts | 245° |
| 2026-04-22 01:39 | 35.77371 | -109.22638 | 11983 ft | 159 kts | 245° |
| 2026-04-22 01:39 | 35.76938 | -109.23892 | 11977 ft | 159 kts | 245° |
| 2026-04-22 01:40 | 35.76504 | -109.25143 | 11972 ft | 159 kts | 245° |
| 2026-04-22 01:40 | 35.76071 | -109.26392 | 11967 ft | 158 kts | 246° |
| 2026-04-22 01:40 | 35.75640 | -109.27639 | 11961 ft | 158 kts | 246° |
| 2026-04-22 01:40 | 35.75207 | -109.28889 | 11953 ft | 159 kts | 245° |
| 2026-04-22 01:41 | 35.74780 | -109.30124 | 11949 ft | 159 kts | 245° |
| 2026-04-22 01:41 | 35.74346 | -109.31376 | 11943 ft | 159 kts | 245° |
| 2026-04-22 01:41 | 35.73911 | -109.32631 | 11935 ft | 160 kts | 245° |
| 2026-04-22 01:41 | 35.73473 | -109.33893 | 11929 ft | 160 kts | 245° |
| 2026-04-22 01:42 | 35.73036 | -109.35154 | 11920 ft | 160 kts | 245° |
| 2026-04-22 01:42 | 35.72598 | -109.36418 | 11916 ft | 161 kts | 245° |
| 2026-04-22 01:42 | 35.72159 | -109.37682 | 11904 ft | 160 kts | 245° |
| 2026-04-22 01:42 | 35.71722 | -109.38941 | 11893 ft | 160 kts | 245° |
| 2026-04-22 01:43 | 35.71285 | -109.40199 | 11889 ft | 160 kts | 245° |
| 2026-04-22 01:43 | 35.70845 | -109.41463 | 11879 ft | 161 kts | 245° |
| 2026-04-22 01:43 | 35.70405 | -109.42729 | 11871 ft | 161 kts | 245° |
| 2026-04-22 01:43 | 35.69967 | -109.43988 | 11861 ft | 160 kts | 245° |
| 2026-04-22 01:44 | 35.69529 | -109.45247 | 11857 ft | 160 kts | 245° |
| 2026-04-22 01:44 | 35.69091 | -109.46507 | 11840 ft | 160 kts | 244° |
| 2026-04-22 01:44 | 35.68653 | -109.47766 | 11842 ft | 160 kts | 244° |
| 2026-04-22 01:44 | 35.68214 | -109.49026 | 11825 ft | 160 kts | 244° |
| 2026-04-22 01:45 | 35.67774 | -109.50287 | 11821 ft | 161 kts | 244° |
| 2026-04-22 01:45 | 35.67334 | -109.51548 | 11811 ft | 161 kts | 244° |
| 2026-04-22 01:45 | 35.66893 | -109.52811 | 11817 ft | 161 kts | 244° |
| 2026-04-22 01:45 | 35.66452 | -109.54074 | 11809 ft | 161 kts | 244° |
| 2026-04-22 01:46 | 35.66013 | -109.55334 | 11814 ft | 160 kts | 244° |
| 2026-04-22 01:46 | 35.65575 | -109.56589 | 11814 ft | 160 kts | 244° |
| 2026-04-22 01:46 | 35.65135 | -109.57846 | 11815 ft | 160 kts | 244° |
| 2026-04-22 01:46 | 35.64696 | -109.59104 | 11813 ft | 161 kts | 244° |
| 2026-04-22 01:47 | 35.64254 | -109.60367 | 11810 ft | 161 kts | 244° |
| 2026-04-22 01:47 | 35.63812 | -109.61630 | 11813 ft | 161 kts | 244° |
| 2026-04-22 01:47 | 35.63368 | -109.62900 | 11813 ft | 162 kts | 244° |
| 2026-04-22 01:47 | 35.62924 | -109.64168 | 11811 ft | 162 kts | 244° |
| 2026-04-22 01:48 | 35.62479 | -109.65439 | 11812 ft | 162 kts | 244° |
| 2026-04-22 01:48 | 35.62034 | -109.66710 | 11809 ft | 161 kts | 244° |
| 2026-04-22 01:48 | 35.61592 | -109.67968 | 11814 ft | 160 kts | 244° |
| 2026-04-22 01:48 | 35.61153 | -109.69220 | 11807 ft | 159 kts | 244° |
| 2026-04-22 01:49 | 35.60715 | -109.70467 | 11813 ft | 159 kts | 243° |
| 2026-04-22 01:49 | 35.60284 | -109.71696 | 11813 ft | 159 kts | 244° |
| 2026-04-22 01:49 | 35.59846 | -109.72941 | 11809 ft | 159 kts | 244° |
| 2026-04-22 01:49 | 35.59407 | -109.74190 | 11813 ft | 159 kts | 244° |
| 2026-04-22 01:50 | 35.58970 | -109.75436 | 11810 ft | 159 kts | 244° |
| 2026-04-22 01:50 | 35.58532 | -109.76683 | 11811 ft | 159 kts | 243° |
| 2026-04-22 01:50 | 35.58093 | -109.77931 | 11814 ft | 159 kts | 243° |
| 2026-04-22 01:50 | 35.57656 | -109.79174 | 11809 ft | 158 kts | 244° |
| 2026-04-22 01:51 | 35.57218 | -109.80417 | 11824 ft | 159 kts | 244° |
| 2026-04-22 01:51 | 35.56778 | -109.81664 | 11821 ft | 159 kts | 243° |
| 2026-04-22 01:51 | 35.56338 | -109.82914 | 11827 ft | 160 kts | 244° |
| 2026-04-22 01:51 | 35.55897 | -109.84167 | 11816 ft | 160 kts | 243° |
| 2026-04-22 01:52 | 35.55454 | -109.85424 | 11818 ft | 161 kts | 244° |
| 2026-04-22 01:52 | 35.55011 | -109.86680 | 11822 ft | 160 kts | 244° |
| 2026-04-22 01:52 | 35.54567 | -109.87938 | 11821 ft | 161 kts | 242° |
| 2026-04-22 01:52 | 35.54123 | -109.89197 | 11822 ft | 161 kts | 243° |
| 2026-04-22 01:53 | 35.53679 | -109.90453 | 11827 ft | 160 kts | 242° |
| 2026-04-22 01:53 | 35.53236 | -109.91706 | 11820 ft | 160 kts | 243° |
| 2026-04-22 01:53 | 35.52794 | -109.92960 | 11823 ft | 161 kts | 244° |
| 2026-04-22 01:53 | 35.52347 | -109.94221 | 11827 ft | 162 kts | 243° |
| 2026-04-22 01:54 | 35.51897 | -109.95495 | 11825 ft | 163 kts | 243° |
| 2026-04-22 01:54 | 35.51446 | -109.96771 | 11829 ft | 162 kts | 243° |
| 2026-04-22 01:54 | 35.50999 | -109.98035 | 11827 ft | 161 kts | 242° |
| 2026-04-22 01:54 | 35.50551 | -109.99297 | 11828 ft | 161 kts | 242° |
| 2026-04-22 01:55 | 35.50108 | -110.00549 | 11834 ft | 159 kts | 243° |
| 2026-04-22 01:55 | 35.49664 | -110.01799 | 11829 ft | 160 kts | 242° |
| 2026-04-22 01:55 | 35.49219 | -110.03056 | 11829 ft | 161 kts | 242° |
| 2026-04-22 01:55 | 35.48774 | -110.04315 | 11823 ft | 160 kts | 242° |
| 2026-04-22 01:56 | 35.48329 | -110.05567 | 11828 ft | 160 kts | 242° |
| 2026-04-22 01:56 | 35.47885 | -110.06818 | 11827 ft | 160 kts | 243° |
| 2026-04-22 01:56 | 35.47441 | -110.08069 | 11837 ft | 159 kts | 242° |
| 2026-04-22 01:56 | 35.46998 | -110.09316 | 11841 ft | 160 kts | 242° |
| 2026-04-22 01:57 | 35.46704 | -110.10143 | 11835 ft | 159 kts | 242° |
| 2026-04-22 01:57 | 35.46264 | -110.11383 | 11840 ft | 158 kts | 242° |
| 2026-04-22 01:57 | 35.45826 | -110.12612 | 11833 ft | 157 kts | 243° |
| 2026-04-22 01:57 | 35.45245 | -110.14244 | 11829 ft | 158 kts | 242° |
| 2026-04-22 01:58 | 35.44949 | -110.15078 | 11839 ft | 158 kts | 242° |
| 2026-04-22 01:58 | 35.44369 | -110.16705 | 11834 ft | 157 kts | 242° |
| 2026-04-22 01:58 | 35.43931 | -110.17932 | 11840 ft | 157 kts | 243° |
| 2026-04-22 01:58 | 35.43636 | -110.18763 | 11835 ft | 157 kts | 242° |
| 2026-04-22 01:59 | 35.43198 | -110.19990 | 11839 ft | 158 kts | 242° |
| 2026-04-22 01:59 | 35.42761 | -110.21216 | 11841 ft | 157 kts | 242° |
| 2026-04-22 01:59 | 35.42324 | -110.22443 | 11835 ft | 157 kts | 242° |
| 2026-04-22 01:59 | 35.41887 | -110.23666 | 11837 ft | 157 kts | 243° |
| 2026-04-22 02:00 | 35.41449 | -110.24891 | 11835 ft | 157 kts | 242° |
| 2026-04-22 02:00 | 35.41018 | -110.26098 | 11840 ft | 157 kts | 242° |
| 2026-04-22 02:00 | 35.40580 | -110.27323 | 11836 ft | 158 kts | 243° |
| 2026-04-22 02:00 | 35.40138 | -110.28560 | 11839 ft | 159 kts | 243° |
| 2026-04-22 02:01 | 35.39695 | -110.29801 | 11840 ft | 159 kts | 242° |
| 2026-04-22 02:01 | 35.39250 | -110.31046 | 11837 ft | 160 kts | 242° |
| 2026-04-22 02:01 | 35.38804 | -110.32292 | 11840 ft | 159 kts | 242° |
| 2026-04-22 02:01 | 35.38362 | -110.33527 | 11833 ft | 158 kts | 243° |
| 2026-04-22 02:02 | 35.37919 | -110.34763 | 11834 ft | 159 kts | 243° |
| 2026-04-22 02:02 | 35.37474 | -110.36004 | 11842 ft | 159 kts | 242° |
| 2026-04-22 02:02 | 35.37030 | -110.37242 | 11842 ft | 159 kts | 242° |
| 2026-04-22 02:02 | 35.36583 | -110.38489 | 11840 ft | 160 kts | 242° |
| 2026-04-22 02:03 | 35.36133 | -110.39744 | 11836 ft | 161 kts | 243° |
| 2026-04-22 02:03 | 35.35687 | -110.40988 | 11837 ft | 159 kts | 243° |
| 2026-04-22 02:03 | 35.35241 | -110.42230 | 11838 ft | 159 kts | 242° |
| 2026-04-22 02:03 | 35.34796 | -110.43471 | 11839 ft | 159 kts | 242° |
| 2026-04-22 02:04 | 35.33909 | -110.45938 | 11848 ft | 158 kts | 243° |
| 2026-04-22 02:04 | 35.33465 | -110.47173 | 11845 ft | 158 kts | 242° |
| 2026-04-22 02:04 | 35.33019 | -110.48412 | 11845 ft | 160 kts | 242° |
| 2026-04-22 02:05 | 35.32572 | -110.49655 | 11840 ft | 159 kts | 242° |
| 2026-04-22 02:05 | 35.32126 | -110.50896 | 11837 ft | 159 kts | 242° |
| 2026-04-22 02:05 | 35.31681 | -110.52133 | 11834 ft | 158 kts | 242° |
| 2026-04-22 02:05 | 35.31236 | -110.53366 | 11835 ft | 159 kts | 243° |
| 2026-04-22 02:06 | 35.30790 | -110.54603 | 11838 ft | 159 kts | 243° |
| 2026-04-22 02:06 | 35.30345 | -110.55839 | 11835 ft | 158 kts | 242° |
| 2026-04-22 02:06 | 35.29902 | -110.57065 | 11837 ft | 157 kts | 242° |
| 2026-04-22 02:06 | 35.29466 | -110.58273 | 11836 ft | 157 kts | 243° |
| 2026-04-22 02:07 | 35.29024 | -110.59497 | 11838 ft | 158 kts | 243° |
| 2026-04-22 02:07 | 35.28580 | -110.60727 | 11840 ft | 158 kts | 242° |
| 2026-04-22 02:07 | 35.28135 | -110.61957 | 11840 ft | 158 kts | 242° |
| 2026-04-22 02:07 | 35.27690 | -110.63191 | 11841 ft | 159 kts | 242° |
| 2026-04-22 02:08 | 35.27242 | -110.64431 | 11843 ft | 159 kts | 242° |
| 2026-04-22 02:08 | 35.26793 | -110.65669 | 11842 ft | 159 kts | 242° |
| 2026-04-22 02:08 | 35.26346 | -110.66907 | 11840 ft | 159 kts | 242° |
| 2026-04-22 02:08 | 35.25898 | -110.68146 | 11840 ft | 159 kts | 242° |
| 2026-04-22 02:09 | 35.25449 | -110.69385 | 11837 ft | 160 kts | 243° |
| 2026-04-22 02:09 | 35.24999 | -110.70627 | 11849 ft | 160 kts | 242° |
| 2026-04-22 02:09 | 35.24549 | -110.71869 | 11840 ft | 159 kts | 243° |
| 2026-04-22 02:09 | 35.24099 | -110.73109 | 11837 ft | 160 kts | 242° |
| 2026-04-22 02:10 | 35.23649 | -110.74349 | 11841 ft | 160 kts | 242° |
| 2026-04-22 02:10 | 35.23199 | -110.75590 | 11848 ft | 160 kts | 242° |
| 2026-04-22 02:10 | 35.22749 | -110.76830 | 11847 ft | 159 kts | 242° |
| 2026-04-22 02:10 | 35.22299 | -110.78069 | 11844 ft | 160 kts | 243° |
| 2026-04-22 02:11 | 35.21847 | -110.79313 | 11847 ft | 160 kts | 243° |
| 2026-04-22 02:11 | 35.21395 | -110.80557 | 11849 ft | 160 kts | 243° |
| 2026-04-22 02:11 | 35.20945 | -110.81795 | 11845 ft | 159 kts | 242° |
| 2026-04-22 02:11 | 35.20499 | -110.83023 | 11846 ft | 158 kts | 242° |
| 2026-04-22 02:12 | 35.20054 | -110.84246 | 11840 ft | 157 kts | 242° |
| 2026-04-22 02:12 | 35.19612 | -110.85460 | 11840 ft | 156 kts | 242° |
| 2026-04-22 02:12 | 35.19171 | -110.86670 | 11840 ft | 156 kts | 242° |
| 2026-04-22 02:12 | 35.18730 | -110.87880 | 11867 ft | 156 kts | 242° |
| 2026-04-22 02:13 | 35.18288 | -110.89093 | 11869 ft | 156 kts | 243° |
| 2026-04-22 02:13 | 35.17846 | -110.90307 | 11868 ft | 156 kts | 242° |
| 2026-04-22 02:13 | 35.17404 | -110.91518 | 11867 ft | 156 kts | 242° |
| 2026-04-22 02:13 | 35.16963 | -110.92727 | 11869 ft | 156 kts | 242° |
| 2026-04-22 02:14 | 35.16520 | -110.93940 | 11869 ft | 156 kts | 243° |
| 2026-04-22 02:14 | 35.16077 | -110.95154 | 11869 ft | 156 kts | 242° |
| 2026-04-22 02:14 | 35.15634 | -110.96366 | 11929 ft | 156 kts | 242° |
| 2026-04-22 02:14 | 35.15193 | -110.97574 | 11925 ft | 156 kts | 242° |
| 2026-04-22 02:15 | 35.14753 | -110.98778 | 11924 ft | 155 kts | 242° |
| 2026-04-22 02:15 | 35.14313 | -110.99982 | 11922 ft | 155 kts | 242° |
| 2026-04-22 02:15 | 35.13873 | -111.01184 | 11928 ft | 155 kts | 242° |
| 2026-04-22 02:15 | 35.13433 | -111.02387 | 11924 ft | 155 kts | 242° |
| 2026-04-22 02:16 | 35.12995 | -111.03585 | 11921 ft | 154 kts | 242° |
| 2026-04-22 02:16 | 35.12557 | -111.04780 | 11919 ft | 154 kts | 242° |
| 2026-04-22 02:16 | 35.12118 | -111.05977 | 11915 ft | 155 kts | 242° |
| 2026-04-22 02:16 | 35.11678 | -111.07178 | 11912 ft | 155 kts | 242° |
| 2026-04-22 02:17 | 35.11239 | -111.08377 | 11911 ft | 154 kts | 242° |
| 2026-04-22 02:17 | 35.10801 | -111.09573 | 11907 ft | 154 kts | 242° |
| 2026-04-22 02:17 | 35.10360 | -111.10772 | 11903 ft | 155 kts | 242° |
| 2026-04-22 02:17 | 35.09920 | -111.11970 | 11900 ft | 155 kts | 242° |
| 2026-04-22 02:18 | 35.09480 | -111.13171 | 11896 ft | 155 kts | 242° |
| 2026-04-22 02:18 | 35.09042 | -111.14365 | 11909 ft | 154 kts | 242° |
| 2026-04-22 02:18 | 35.08605 | -111.15556 | 11905 ft | 153 kts | 242° |
| 2026-04-22 02:18 | 35.08170 | -111.16738 | 11904 ft | 152 kts | 242° |
| 2026-04-22 02:19 | 35.07744 | -111.17896 | 11905 ft | 151 kts | 242° |
| 2026-04-22 02:19 | 35.07313 | -111.19066 | 11906 ft | 151 kts | 242° |
| 2026-04-22 02:19 | 35.06881 | -111.20240 | 11905 ft | 152 kts | 242° |
| 2026-04-22 02:19 | 35.06448 | -111.21416 | 11905 ft | 152 kts | 242° |
| 2026-04-22 02:20 | 35.06017 | -111.22589 | 11907 ft | 151 kts | 242° |
| 2026-04-22 02:20 | 35.05587 | -111.23756 | 11907 ft | 150 kts | 242° |
| 2026-04-22 02:20 | 35.05159 | -111.24919 | 11907 ft | 150 kts | 242° |
| 2026-04-22 02:20 | 35.04729 | -111.26084 | 11908 ft | 151 kts | 242° |
| 2026-04-22 02:21 | 35.04297 | -111.27253 | 11908 ft | 151 kts | 242° |
| 2026-04-22 02:21 | 35.03868 | -111.28418 | 11927 ft | 151 kts | 242° |
| 2026-04-22 02:21 | 35.03437 | -111.29585 | 11924 ft | 151 kts | 242° |
| 2026-04-22 02:21 | 35.03007 | -111.30750 | 11923 ft | 151 kts | 242° |
| 2026-04-22 02:22 | 35.02576 | -111.31917 | 11924 ft | 151 kts | 242° |
| 2026-04-22 02:22 | 35.02146 | -111.33083 | 11922 ft | 150 kts | 242° |
| 2026-04-22 02:22 | 35.01716 | -111.34246 | 11925 ft | 150 kts | 242° |
| 2026-04-22 02:22 | 35.01286 | -111.35408 | 11925 ft | 150 kts | 242° |
| 2026-04-22 02:23 | 35.00855 | -111.36573 | 11894 ft | 152 kts | 242° |
| 2026-04-22 02:23 | 35.00416 | -111.37762 | 11768 ft | 154 kts | 242° |
| 2026-04-22 02:23 | 34.99975 | -111.38957 | 11655 ft | 155 kts | 242° |
| 2026-04-22 02:23 | 34.99534 | -111.40149 | 11531 ft | 154 kts | 242° |
| 2026-04-22 02:24 | 34.99093 | -111.41339 | 11410 ft | 154 kts | 242° |
| 2026-04-22 02:24 | 34.98652 | -111.42528 | 11294 ft | 154 kts | 243° |
| 2026-04-22 02:24 | 34.98212 | -111.43713 | 11168 ft | 153 kts | 242° |
| 2026-04-22 02:24 | 34.97776 | -111.44892 | 11049 ft | 153 kts | 242° |
| 2026-04-22 02:25 | 34.97338 | -111.46076 | 10928 ft | 152 kts | 242° |
| 2026-04-22 02:25 | 34.96901 | -111.47250 | 10810 ft | 152 kts | 243° |
| 2026-04-22 02:25 | 34.96466 | -111.48422 | 10689 ft | 151 kts | 243° |
| 2026-04-22 02:25 | 34.96037 | -111.49582 | 10573 ft | 148 kts | 242° |
| 2026-04-22 02:26 | 34.95609 | -111.50723 | 10456 ft | 151 kts | 242° |
| 2026-04-22 02:26 | 34.95173 | -111.51903 | 10349 ft | 154 kts | 243° |
| 2026-04-22 02:26 | 34.94726 | -111.53105 | 10221 ft | 156 kts | 242° |
| 2026-04-22 02:26 | 34.94281 | -111.54304 | 10102 ft | 154 kts | 242° |
| 2026-04-22 02:27 | 34.93838 | -111.55495 | 9989 ft | 155 kts | 242° |
| 2026-04-22 02:27 | 34.93392 | -111.56694 | 9910 ft | 156 kts | 242° |
| 2026-04-22 02:27 | 34.92944 | -111.57897 | 9787 ft | 155 kts | 242° |
| 2026-04-22 02:27 | 34.92499 | -111.59089 | 9651 ft | 153 kts | 242° |
| 2026-04-22 02:28 | 34.92063 | -111.60260 | 9536 ft | 151 kts | 242° |
| 2026-04-22 02:28 | 34.91627 | -111.61431 | 9415 ft | 153 kts | 242° |
| 2026-04-22 02:28 | 34.91187 | -111.62609 | 9289 ft | 154 kts | 243° |
| 2026-04-22 02:28 | 34.90744 | -111.63798 | 9164 ft | 154 kts | 242° |
| 2026-04-22 02:29 | 34.90300 | -111.64987 | 9036 ft | 154 kts | 242° |
| 2026-04-22 02:29 | 34.89854 | -111.66182 | 8925 ft | 156 kts | 243° |
| 2026-04-22 02:29 | 34.89401 | -111.67399 | 8741 ft | 161 kts | 243° |
| 2026-04-22 02:29 | 34.88942 | -111.68631 | 8477 ft | 156 kts | 242° |
| 2026-04-22 02:30 | 34.88484 | -111.69795 | 8201 ft | 149 kts | 239° |
| 2026-04-22 02:30 | 34.88000 | -111.70872 | 7931 ft | 143 kts | 236° |
| 2026-04-22 02:30 | 34.87292 | -111.71708 | 7635 ft | 145 kts | 216° |
| 2026-04-22 02:30 | 34.86656 | -111.72425 | 7303 ft | 96 kts | 238° |
| 2026-04-22 02:31 | 34.86644 | -111.73339 | 7045 ft | 121 kts | 274° |
| 2026-04-22 02:31 | 34.87013 | -111.74172 | 6649 ft | 106 kts | 296° |
| 2026-04-22 02:31 | 34.87292 | -111.74822 | 6334 ft | 78 kts | 276° |
| 2026-04-22 02:31 | 34.87256 | -111.75528 | 6124 ft | 86 kts | 246° |
| 2026-04-22 02:32 | 34.86966 | -111.76156 | 5864 ft | 82 kts | 233° |
| 2026-04-22 02:32 | 34.86628 | -111.76629 | 5622 ft | 69 kts | 225° |
| 2026-04-22 02:32 | 34.86305 | -111.77045 | 5421 ft | 65 kts | 220° |
| 2026-04-22 02:32 | 34.85999 | -111.77449 | 5214 ft | 68 kts | 217° |
| 2026-04-22 02:33 | 34.85658 | -111.77858 | 5087 ft | 72 kts | 221° |
| 2026-04-22 02:33 | 34.85335 | -111.78249 | 4865 ft | 61 kts | 221° |
| 2026-04-22 02:33 | 34.85078 | -111.78574 | 4811 ft | 32 kts | 225° |
| 2026-04-22 02:33 | 34.85012 | -111.78676 | 4802 ft | 9 kts | 284° |
| 2026-04-22 02:34 | 34.85036 | -111.78713 | 4801 ft | 2 kts | 319° |
| 2026-04-22 02:34 | 34.85064 | -111.78710 | 4803 ft | 4 kts | 43° |
| 2026-04-22 02:34 | 34.85092 | -111.78675 | 4812 ft | 6 kts | 46° |
| 2026-04-22 02:34 | 34.85124 | -111.78635 | 4814 ft | 6 kts | 46° |
| 2026-04-22 02:35 | 34.85153 | -111.78625 | 4810 ft | 3 kts | 312° |
| 2026-04-22 02:35 | 34.85160 | -111.78634 | 4810 ft | 0 kts | 316° |